Flanders, New York
Current Conditions -  °F | °C
As of 11:53 PM on Friday 28 Nov 2014 (Local Time) from KFOK Reporting Station
Broken Clouds Broken Clouds  
Wind Chill: 26°   Ceiling: 3700
Heat Index: 26°   Visibility: 10mi
Dew Point: 16°   Wind: 3mph
Humidity: 66%   Direction: 300°WNW
Pressure: 30.27"   Gusts: NA
Location:  40.953°N, 72.642°W
Report Text: KFOK 290453Z AUTO 30003KT 10SM BKN037 M03/M09 A3027 RMK AO2 SLP250 T10331089 400441033 TSNO
Loading
Personal Weather Stations






























Interactive Weather Map New forecast layout! Learn more

10-Day Weather Forecast

Advertisements
Track Severe Weather on mobile